Time;durP1;ratioP1;P1;durP2;ratioP2;P2;SDS_P1;SDS_P2;PMS_P1;PMS_P2;Temp;Humidity;BMP_temperature;BMP_pressure;BME280_temperature;BME280_humidity;BME280_pressure;Samples;Min_cycle;Max_cycle;Signal;HPM_P1;HPM_P2
2021/09/05 00:00:58;;;;;;;;;;;;;;;21.61;67.74;101732.84;7286738;19;152109;-51
2021/09/05 00:03:25;;;;;;;;;;;;;;;21.61;68.14;101730.03;7287402;19;151833;-51
2021/09/05 00:05:52;;;;;;;;;;;;;;;21.60;68.43;101730.31;7292317;19;153935;-51
2021/09/05 00:08:18;;;;;;;;;;;;;;;21.61;67.99;101730.03;7287997;19;153272;-51
2021/09/05 00:10:45;;;;;;;;;;;;;;;21.62;67.88;101728.03;7286851;19;153551;-51
2021/09/05 00:13:12;;;;;;;;;;;;;;;21.60;68.11;101728.34;7289039;19;151865;-51
2021/09/05 00:15:39;;;;;;;;;;;;;;;21.62;68.47;101728.84;7288372;19;152196;-50
2021/09/05 00:18:05;;;;;;;;;;;;;;;21.60;68.63;101728.34;7284121;19;153814;-50
2021/09/05 00:20:33;;;;;;;;;;;;;;;21.62;68.63;101734.47;7289907;19;151650;-50
2021/09/05 00:23:03;;;;;;;;;;;;;;;21.62;68.41;101728.03;7284247;19;153338;-50
2021/09/05 00:25:30;;;;;;;;;;;;;;;21.62;68.49;101728.84;7286647;19;153374;-51
2021/09/05 00:27:57;;;;;;;;;;;;;;;21.62;68.28;101728.84;7292842;19;152820;-51
2021/09/05 00:30:25;;;;;;;;;;;;;;;21.61;68.88;101726.38;7287550;19;153091;-51
2021/09/05 00:32:52;;;;;;;;;;;;;;;21.62;68.43;101722.44;7288523;19;152074;-51
2021/09/05 00:35:19;;;;;;;;;;;;;;;21.64;68.72;101723.78;7287049;19;152437;-51
2021/09/05 00:37:46;;;;;;;;;;;;;;;21.63;68.65;101724.91;7285156;19;153536;-50
2021/09/05 00:40:13;;;;;;;;;;;;;;;21.63;68.71;101722.09;7286390;19;151940;-51
2021/09/05 00:42:39;;;;;;;;;;;;;;;21.63;68.63;101719.28;7287540;19;153077;-50
2021/09/05 00:45:06;;;;;;;;;;;;;;;21.64;68.94;101732.22;7284243;19;153740;-51
2021/09/05 00:47:34;;;;;;;;;;;;;;;21.63;69.01;101724.91;7288774;19;151998;-50
2021/09/05 00:50:01;;;;;;;;;;;;;;;21.64;68.93;101725.75;7295549;19;152800;-51
2021/09/05 00:52:28;;;;;;;;;;;;;;;21.64;69.10;101732.22;7285332;19;151856;-50
2021/09/05 00:54:55;;;;;;;;;;;;;;;21.64;68.96;101729.41;7284495;19;153572;-51
2021/09/05 00:57:23;;;;;;;;;;;;;;;21.63;68.72;101724.06;7286392;19;154233;-50
2021/09/05 00:59:50;;;;;;;;;;;;;;;21.64;68.64;101720.97;7286975;19;151596;-51
2021/09/05 01:02:17;;;;;;;;;;;;;;;21.65;69.25;101730.25;7286861;19;153173;-51
2021/09/05 01:04:44;;;;;;;;;;;;;;;21.64;69.01;101729.41;7283854;19;152907;-50
2021/09/05 01:07:12;;;;;;;;;;;;;;;21.64;69.19;101726.59;7285743;19;152752;-51
2021/09/05 01:09:38;;;;;;;;;;;;;;;21.65;68.92;101722.66;7284470;19;153089;-51
2021/09/05 01:12:05;;;;;;;;;;;;;;;21.64;69.15;101715.34;7290563;19;154443;-51
2021/09/05 01:14:32;;;;;;;;;;;;;;;21.66;68.93;101713.09;7284947;19;151861;-52
2021/09/05 01:17:00;;;;;;;;;;;;;;;21.64;69.44;101715.34;7286905;19;154879;-50
2021/09/05 01:19:26;;;;;;;;;;;;;;;21.67;69.53;101713.91;7286496;19;152101;-51
2021/09/05 01:21:53;;;;;;;;;;;;;;;21.65;69.15;101714.22;7284065;19;153290;-51
2021/09/05 01:24:21;;;;;;;;;;;;;;;21.67;69.31;101720.38;7284008;19;153820;-51
2021/09/05 01:26:49;;;;;;;;;;;;;;;21.67;69.33;101716.72;7285579;19;154314;-50
2021/09/05 01:29:16;;;;;;;;;;;;;;;21.66;69.59;101721.53;7284948;19;152557;-50
2021/09/05 01:31:47;;;;;;;;;;;;;;;21.67;69.70;101716.72;7280457;19;154197;-51
2021/09/05 01:34:16;;;;;;;;;;;;;;;21.67;69.78;101713.91;7292226;19;152091;-51
2021/09/05 01:36:43;;;;;;;;;;;;;;;21.68;69.69;101715.59;7283039;19;153379;-50
2021/09/05 01:39:11;;;;;;;;;;;;;;;21.69;69.51;101715.31;7285583;19;151866;-51
2021/09/05 01:41:38;;;;;;;;;;;;;;;21.68;69.82;101719.25;7283285;19;152814;-50
2021/09/05 01:44:07;;;;;;;;;;;;;;;21.70;69.69;101727.41;7280559;19;154428;-50
2021/09/05 01:46:34;;;;;;;;;;;;;;;21.70;70.13;101731.06;7285575;19;151938;-50
2021/09/05 01:49:01;;;;;;;;;;;;;;;21.70;69.50;101731.06;7287068;19;153017;-49
2021/09/05 01:51:28;;;;;;;;;;;;;;;21.69;69.60;101726.56;7285079;19;153848;-51
2021/09/05 01:53:55;;;;;;;;;;;;;;;21.71;69.62;101715.00;7281702;19;151911;-50
2021/09/05 01:56:21;;;;;;;;;;;;;;;21.76;70.22;101725.38;7293046;19;152706;-51
2021/09/05 01:58:48;;;;;;;;;;;;;;;21.72;69.71;101728.75;7283920;19;151761;-51
2021/09/05 02:01:15;;;;;;;;;;;;;;;21.70;70.07;101731.06;7284100;19;153232;-50
2021/09/05 02:03:42;;;;;;;;;;;;;;;21.69;69.79;101729.38;7284338;19;153387;-51
2021/09/05 02:06:08;;;;;;;;;;;;;;;21.69;69.90;101726.56;7284140;19;152650;-49
2021/09/05 02:08:35;;;;;;;;;;;;;;;21.70;70.37;101731.06;7285781;19;153492;-51
2021/09/05 02:11:02;;;;;;;;;;;;;;;21.71;69.90;101738.31;7281786;19;153173;-51
2021/09/05 02:13:29;;;;;;;;;;;;;;;21.71;70.18;101737.53;7286085;19;152147;-51
2021/09/05 02:15:56;;;;;;;;;;;;;;;21.70;70.38;101738.66;7290626;19;152782;-51
2021/09/05 02:18:23;;;;;;;;;;;;;;;21.70;70.39;101736.69;7283589;19;151641;-50
2021/09/05 02:20:49;;;;;;;;;;;;;;;21.70;70.36;101735.84;7282163;19;153655;-51
2021/09/05 02:23:16;;;;;;;;;;;;;;;21.72;70.65;101727.91;7279435;19;154131;-51
2021/09/05 02:25:43;;;;;;;;;;;;;;;21.72;70.41;101737.19;7281442;19;151851;-51
2021/09/05 02:28:10;;;;;;;;;;;;;;;21.72;70.32;101728.75;7285480;19;153174;-51
2021/09/05 02:30:36;;;;;;;;;;;;;;;21.73;70.68;101736.06;7282905;19;153904;-49
2021/09/05 02:33:03;;;;;;;;;;;;;;;21.74;70.35;101736.91;7284679;19;151993;-50
2021/09/05 02:35:30;;;;;;;;;;;;;;;21.73;70.39;101733.25;7282715;19;152699;-51
2021/09/05 02:37:57;;;;;;;;;;;;;;;21.73;70.94;101730.44;7289775;19;154274;-50
2021/09/05 02:40:23;;;;;;;;;;;;;;;21.74;70.76;101743.38;7282547;19;153287;-50
2021/09/05 02:42:50;;;;;;;;;;;;;;;21.74;70.64;101742.53;7279510;19;153833;-50
2021/09/05 02:45:17;;;;;;;;;;;;;;;21.74;70.40;101751.81;7282658;19;153134;-51
2021/09/05 02:47:44;;;;;;;;;;;;;;;21.74;70.45;101746.19;7282367;19;153867;-50
2021/09/05 02:50:10;;;;;;;;;;;;;;;21.73;70.56;101740.84;7280811;19;152164;-50
2021/09/05 02:52:37;;;;;;;;;;;;;;;21.74;70.92;101742.53;7282794;19;151658;-51
2021/09/05 02:55:04;;;;;;;;;;;;;;;21.75;70.49;101747.03;7282355;19;153283;-50
2021/09/05 02:57:31;;;;;;;;;;;;;;;21.74;70.85;101742.53;7282768;19;153878;-50
2021/09/05 02:59:58;;;;;;;;;;;;;;;21.76;70.36;101729.00;7290232;19;151930;-50
2021/09/05 03:02:25;;;;;;;;;;;;;;;21.73;70.48;101738.88;7281103;19;153527;-51
2021/09/05 03:04:52;;;;;;;;;;;;;;;21.73;70.23;101729.59;7282701;19;151860;-50
2021/09/05 03:07:19;;;;;;;;;;;;;;;21.74;70.65;101729.31;7283980;19;153299;-49
2021/09/05 03:09:45;;;;;;;;;;;;;;;21.77;70.62;101732.66;7281999;19;154018;-50
2021/09/05 03:12:12;;;;;;;;;;;;;;;21.75;70.22;101724.53;7282328;19;151895;-51
2021/09/05 03:14:38;;;;;;;;;;;;;;;21.75;70.81;101721.72;7281622;19;151807;-50
2021/09/05 03:17:05;;;;;;;;;;;;;;;21.78;70.72;101723.09;7280845;19;154028;-50
2021/09/05 03:19:32;;;;;;;;;;;;;;;21.76;70.47;101722.56;7281646;19;152119;-51
2021/09/05 03:21:59;;;;;;;;;;;;;;;21.74;70.79;101720.88;7286669;19;152811;-50
2021/09/05 03:24:25;;;;;;;;;;;;;;;21.76;70.77;101714.13;7282126;19;151850;-51
2021/09/05 03:26:52;;;;;;;;;;;;;;;21.78;70.78;101706.22;7282091;19;151912;-50
2021/09/05 03:29:18;;;;;;;;;;;;;;;21.77;70.77;101719.44;7281099;19;154058;-51
2021/09/05 03:31:45;;;;;;;;;;;;;;;21.75;70.80;101716.09;7282770;19;151706;-51
2021/09/05 03:34:12;;;;;;;;;;;;;;;21.75;70.94;101713.28;7288934;19;153312;-51
2021/09/05 03:36:38;;;;;;;;;;;;;;;21.74;71.03;101712.44;7288362;19;153145;-50
2021/09/05 03:39:05;;;;;;;;;;;;;;;21.73;70.81;101702.31;7286910;19;151951;-51
2021/09/05 03:41:32;;;;;;;;;;;;;;;21.73;71.21;101707.09;7287730;19;151854;-51
2021/09/05 03:43:59;;;;;;;;;;;;;;;21.72;70.94;101703.44;7294284;19;153090;-50
2021/09/05 03:46:25;;;;;;;;;;;;;;;21.74;71.17;101704.00;7288258;19;152738;-50
2021/09/05 03:48:52;;;;;;;;;;;;;;;21.73;70.79;101702.31;7279523;19;153140;-51
2021/09/05 03:51:19;;;;;;;;;;;;;;;21.73;71.03;101712.72;7282658;19;153289;-51
2021/09/05 03:53:45;;;;;;;;;;;;;;;21.74;71.29;101709.63;7288031;19;153129;-51
2021/09/05 03:56:12;;;;;;;;;;;;;;;21.73;71.24;101712.72;7288669;19;153253;-51
2021/09/05 03:58:39;;;;;;;;;;;;;;;21.72;71.17;101713.84;7286232;19;152025;-51
2021/09/05 04:01:05;;;;;;;;;;;;;;;21.71;71.39;101715.81;7288488;19;153073;-50
2021/09/05 04:03:32;;;;;;;;;;;;;;;21.70;71.13;101710.53;7287779;19;153424;-51
2021/09/05 04:06:01;;;;;;;;;;;;;;;21.70;71.00;101711.38;7294834;19;151549;-51
2021/09/05 04:08:31;;;;;;;;;;;;;;;21.70;71.81;101711.38;7289015;19;153618;-51
2021/09/05 04:10:58;;;;;;;;;;;;;;;21.70;71.66;101705.72;7287506;19;151792;-51
2021/09/05 04:13:24;;;;;;;;;;;;;;;21.69;71.70;101712.50;7289456;19;152716;-51
2021/09/05 04:15:51;;;;;;;;;;;;;;;21.69;71.38;101712.50;7285272;19;153386;-51
2021/09/05 04:18:18;;;;;;;;;;;;;;;21.70;71.31;101704.91;7286669;19;152036;-51
2021/09/05 04:20:44;;;;;;;;;;;;;;;21.70;71.38;101708.53;7289439;19;152968;-50
2021/09/05 04:23:11;;;;;;;;;;;;;;;21.69;71.88;101712.50;7284333;19;153701;-51
2021/09/05 04:25:38;;;;;;;;;;;;;;;21.69;71.63;101714.47;7296690;19;152022;-51
2021/09/05 04:28:05;;;;;;;;;;;;;;;21.70;71.55;101707.72;7284718;19;153596;-51
2021/09/05 04:30:32;;;;;;;;;;;;;;;21.70;72.09;101711.38;7289090;19;152544;-50
2021/09/05 04:32:59;;;;;;;;;;;;;;;21.69;71.50;101711.66;7286570;19;153145;-52
2021/09/05 04:35:25;;;;;;;;;;;;;;;21.70;71.62;101716.16;7287616;19;154275;-51
2021/09/05 04:37:52;;;;;;;;;;;;;;;21.69;71.76;101711.66;7287933;19;151856;-51
2021/09/05 04:40:19;;;;;;;;;;;;;;;21.71;71.80;101709.38;7285458;19;155208;-51
2021/09/05 04:42:46;;;;;;;;;;;;;;;21.69;71.48;101714.47;7286886;19;153817;-51
2021/09/05 04:45:12;;;;;;;;;;;;;;;21.69;71.69;101709.69;7284615;19;151823;-51
2021/09/05 04:47:39;;;;;;;;;;;;;;;21.69;71.64;101709.69;7293047;19;152563;-50
2021/09/05 04:50:06;;;;;;;;;;;;;;;21.68;71.83;101708.00;7286837;19;151630;-51
2021/09/05 04:52:33;;;;;;;;;;;;;;;21.69;71.45;101712.50;7287759;19;153792;-50
2021/09/05 04:55:00;;;;;;;;;;;;;;;21.72;71.89;101717.50;7285937;19;153968;-50
2021/09/05 04:57:27;;;;;;;;;;;;;;;21.72;71.72;101716.66;7285176;19;151870;-50
2021/09/05 04:59:54;;;;;;;;;;;;;;;21.70;71.73;101719.81;7287438;19;155527;-51
2021/09/05 05:02:20;;;;;;;;;;;;;;;21.70;71.91;101721.78;7283336;19;154125;-50
2021/09/05 05:04:47;;;;;;;;;;;;;;;21.71;71.53;101729.88;7282047;19;152196;-50
2021/09/05 05:07:14;;;;;;;;;;;;;;;21.71;71.59;101735.50;7285610;19;153265;-50
2021/09/05 05:09:43;;;;;;;;;;;;;;;21.70;71.93;101735.84;7294618;19;153630;-51
2021/09/05 05:12:11;;;;;;;;;;;;;;;21.70;71.48;101736.69;7287249;19;153122;-51
2021/09/05 05:14:38;;;;;;;;;;;;;;;21.71;71.43;101738.31;7284797;19;153898;-51
2021/09/05 05:17:05;;;;;;;;;;;;;;;21.71;71.66;101738.31;7285492;19;152040;-50
2021/09/05 05:19:32;;;;;;;;;;;;;;;21.71;71.51;101737.53;7284371;19;152175;-51
2021/09/05 05:21:58;;;;;;;;;;;;;;;21.72;71.62;101744.78;7285217;19;153849;-51
2021/09/05 05:24:25;;;;;;;;;;;;;;;21.72;71.72;101748.44;7283058;19;151678;-51
2021/09/05 05:26:52;;;;;;;;;;;;;;;21.70;71.94;101752.72;7285293;19;153151;-51
2021/09/05 05:29:18;;;;;;;;;;;;;;;21.70;71.69;101752.72;7283685;19;153354;-52
2021/09/05 05:31:45;;;;;;;;;;;;;;;21.72;71.67;101747.59;7294715;19;152059;-50
2021/09/05 05:34:12;;;;;;;;;;;;;;;21.71;71.81;101752.38;7286007;19;153528;-51
2021/09/05 05:36:38;;;;;;;;;;;;;;;21.71;71.41;101760.81;7286623;19;151977;-51
2021/09/05 05:39:05;;;;;;;;;;;;;;;21.71;71.95;101757.22;7287042;19;152476;-51
2021/09/05 05:41:32;;;;;;;;;;;;;;;21.69;71.64;101762.28;7282183;19;153915;-51
2021/09/05 05:43:58;;;;;;;;;;;;;;;21.69;71.87;101763.13;7282691;19;151752;-51
2021/09/05 05:46:25;;;;;;;;;;;;;;;21.69;71.75;101765.09;7284752;19;152747;-52
2021/09/05 05:48:52;;;;;;;;;;;;;;;21.67;71.66;101773.81;7284741;19;153291;-52
2021/09/05 05:51:18;;;;;;;;;;;;;;;21.68;71.53;101764.25;7286267;19;151617;-51
2021/09/05 05:53:45;;;;;;;;;;;;;;;21.67;71.95;101773.81;7290773;19;152385;-52
2021/09/05 05:56:12;;;;;;;;;;;;;;;21.67;71.77;101772.97;7283147;19;151943;-51
2021/09/05 05:58:39;;;;;;;;;;;;;;;21.67;71.60;101775.78;7285568;19;153469;-51
2021/09/05 06:01:07;;;;;;;;;;;;;;;21.67;71.98;101781.41;7283713;19;152263;-51
2021/09/05 06:03:36;;;;;;;;;;;;;;;21.67;71.94;101782.25;7284891;19;151562;-51
2021/09/05 06:06:04;;;;;;;;;;;;;;;21.67;71.86;101776.63;7284263;19;153277;-51
2021/09/05 06:08:30;;;;;;;;;;;;;;;21.65;71.95;101776.09;7285320;19;154174;-52
2021/09/05 06:10:57;;;;;;;;;;;;;;;21.66;71.97;101779.75;7285435;19;151673;-50
2021/09/05 06:13:24;;;;;;;;;;;;;;;21.66;71.48;101774.13;7282707;19;153203;-51
2021/09/05 06:15:51;;;;;;;;;;;;;;;21.67;71.59;101781.41;7288656;19;153651;-51
2021/09/05 06:18:18;;;;;;;;;;;;;;;21.66;71.64;101793.81;7285421;19;152895;-51
2021/09/05 06:20:44;;;;;;;;;;;;;;;21.66;72.03;101788.19;7285458;19;154130;-51
2021/09/05 06:23:11;;;;;;;;;;;;;;;21.64;71.88;101794.09;7282034;19;151849;-52
2021/09/05 06:25:38;;;;;;;;;;;;;;;21.64;72.02;101793.25;7284153;19;152870;-51
2021/09/05 06:28:04;;;;;;;;;;;;;;;21.65;71.84;101801.41;7280295;19;154100;-51
2021/09/05 06:30:31;;;;;;;;;;;;;;;21.66;72.02;101796.63;7284508;19;151576;-51
2021/09/05 06:32:58;;;;;;;;;;;;;;;21.65;71.82;101801.41;7283896;19;152157;-51
2021/09/05 06:35:27;;;;;;;;;;;;;;;21.65;72.01;101797.75;7291485;19;153322;-52
2021/09/05 06:37:54;;;;;;;;;;;;;;;21.64;71.76;101799.72;7284629;19;151770;-51
2021/09/05 06:40:20;;;;;;;;;;;;;;;21.64;71.90;101802.53;7283802;19;153392;-51
2021/09/05 06:42:47;;;;;;;;;;;;;;;21.64;71.81;101808.16;7286095;19;152086;-51
2021/09/05 06:45:14;;;;;;;;;;;;;;;21.65;71.99;101812.66;7280219;19;152739;-51
2021/09/05 06:47:40;;;;;;;;;;;;;;;21.67;71.90;101807.56;7283442;19;152189;-51
2021/09/05 06:50:08;;;;;;;;;;;;;;;21.71;72.01;101805.84;7281200;19;151992;-51
2021/09/05 06:52:34;;;;;;;;;;;;;;;21.69;71.94;101810.09;7282940;19;153590;-52
2021/09/05 06:55:01;;;;;;;;;;;;;;;21.70;71.76;101808.97;7282883;19;153829;-52
2021/09/05 06:57:28;;;;;;;;;;;;;;;21.67;72.31;101804.75;7287369;19;151661;-51
2021/09/05 06:59:55;;;;;;;;;;;;;;;21.67;71.97;101812.34;7283927;19;153193;-52
2021/09/05 07:02:21;;;;;;;;;;;;;;;21.66;72.08;101811.53;7283671;19;152115;-51
2021/09/05 07:04:48;;;;;;;;;;;;;;;21.67;72.44;101813.19;7281506;19;153988;-51
2021/09/05 07:07:35;;;;;;;;;;;;;;;21.69;72.40;101812.91;7288825;19;156444;-51
2021/09/05 07:10:02;;;;;;;;;;;;;;;21.67;72.37;101820.78;7297707;19;152049;-52
2021/09/05 07:12:29;;;;;;;;;;;;;;;21.67;72.16;101827.25;7296124;19;153807;-51
2021/09/05 07:14:56;;;;;;;;;;;;;;;21.70;72.19;101820.22;7295857;19;154068;-51
2021/09/05 07:17:23;;;;;;;;;;;;;;;21.68;71.95;101823.31;7296534;19;151624;-51
2021/09/05 07:19:49;;;;;;;;;;;;;;;21.67;72.17;101827.25;7302829;19;153543;-51
2021/09/05 07:22:16;;;;;;;;;;;;;;;21.69;71.91;101835.41;7297332;19;153053;-51
2021/09/05 07:24:43;;;;;;;;;;;;;;;21.68;72.07;101834.56;7294177;19;152827;-51
2021/09/05 07:27:09;;;;;;;;;;;;;;;21.67;72.13;101838.50;7292531;19;152286;-51
2021/09/05 07:29:36;;;;;;;;;;;;;;;21.69;72.02;101835.41;7295285;19;152975;-51
2021/09/05 07:32:03;;;;;;;;;;;;;;;21.68;72.41;101837.38;7296449;19;153126;-51
2021/09/05 07:34:30;;;;;;;;;;;;;;;21.68;72.46;101842.16;7296082;19;153689;-51
2021/09/05 07:36:56;;;;;;;;;;;;;;;21.68;72.42;101842.16;7298162;19;151915;-51
2021/09/05 07:39:23;;;;;;;;;;;;;;;21.70;72.48;101842.72;7296802;19;152727;-51
2021/09/05 07:41:50;;;;;;;;;;;;;;;21.70;72.32;101848.34;7302896;19;153249;-52
2021/09/05 07:44:16;;;;;;;;;;;;;;;21.68;72.54;101844.97;7296860;19;153119;-51
2021/09/05 07:46:44;;;;;;;;;;;;;;;21.69;72.57;101841.03;7291724;19;153938;-51
2021/09/05 07:49:10;;;;;;;;;;;;;;;21.70;72.39;101848.34;7294734;19;151769;-51
2021/09/05 07:51:37;;;;;;;;;;;;;;;21.69;72.41;101849.47;7295329;19;153219;-51
2021/09/05 07:54:04;;;;;;;;;;;;;;;21.70;72.11;101853.97;7292054;19;152625;-51
2021/09/05 07:56:31;;;;;;;;;;;;;;;21.70;72.17;101859.59;7295384;19;151892;-51
2021/09/05 07:58:57;;;;;;;;;;;;;;;21.68;72.38;101854.25;7296734;19;152918;-51
2021/09/05 08:01:24;;;;;;;;;;;;;;;21.69;72.46;101855.94;7295829;19;153836;-50
2021/09/05 08:03:53;;;;;;;;;;;;;;;21.68;72.52;101856.22;7300707;19;152008;-51
2021/09/05 08:06:20;;;;;;;;;;;;;;;21.68;72.38;101854.25;7294973;19;152455;-51
2021/09/05 08:08:47;;;;;;;;;;;;;;;21.68;72.41;101857.06;7296677;19;151735;-51
2021/09/05 08:11:14;;;;;;;;;;;;;;;21.68;72.61;101859.88;7294870;19;152135;-51
2021/09/05 08:13:40;;;;;;;;;;;;;;;21.69;72.74;101866.34;7293849;19;153974;-51
2021/09/05 08:16:07;;;;;;;;;;;;;;;21.70;72.65;101865.22;7292252;19;151770;-51
2021/09/05 08:18:35;;;;;;;;;;;;;;;21.72;72.80;101865.75;7292664;19;152890;-52
2021/09/05 08:21:03;;;;;;;;;;;;;;;21.71;72.98;101862.09;7287241;19;155787;-51
2021/09/05 08:23:30;;;;;;;;;;;;;;;21.71;72.40;101867.72;7296606;19;152043;-51
2021/09/05 08:25:57;;;;;;;;;;;;;;;21.71;72.63;101869.72;7282367;19;153421;-51
2021/09/05 08:28:23;;;;;;;;;;;;;;;21.73;72.92;101870.25;7288073;19;154307;-50
2021/09/05 08:30:50;;;;;;;;;;;;;;;21.71;72.51;101861.28;7286619;19;152617;-51
2021/09/05 08:33:18;;;;;;;;;;;;;;;21.72;72.50;101866.59;7286331;19;153287;-51
2021/09/05 08:35:45;;;;;;;;;;;;;;;21.73;72.88;101861.81;7288548;19;151740;-52
2021/09/05 08:38:12;;;;;;;;;;;;;;;21.72;72.81;101863.78;7288389;19;153275;-51
2021/09/05 08:40:41;;;;;;;;;;;;;;;21.72;73.12;101866.59;7287534;19;152785;-51
2021/09/05 08:43:09;;;;;;;;;;;;;;;21.73;72.70;101870.25;7286109;19;152036;-52
2021/09/05 08:45:36;;;;;;;;;;;;;;;21.74;73.13;101871.94;7293245;19;152716;-52
2021/09/05 08:48:04;;;;;;;;;;;;;;;21.73;73.10;101865.47;7286111;19;151769;-51
2021/09/05 08:50:32;;;;;;;;;;;;;;;21.73;73.38;101873.91;7285308;19;152891;-51
2021/09/05 08:53:00;;;;;;;;;;;;;;;21.74;72.76;101874.75;7284262;19;153137;-52
2021/09/05 08:55:26;;;;;;;;;;;;;;;21.74;73.02;101875.59;7285379;19;151869;-51
2021/09/05 08:57:54;;;;;;;;;;;;;;;21.76;72.89;101882.91;7282787;19;153641;-51
2021/09/05 09:00:22;;;;;;;;;;;;;;;21.80;72.90;101872.75;7284328;19;153735;-51
2021/09/05 09:02:50;;;;;;;;;;;;;;;21.80;72.93;101873.59;7285239;19;151847;-52
2021/09/05 09:05:29;;;;;;;;;;;;;;;21.74;73.18;101877.56;7283603;19;153148;-51
2021/09/05 09:07:57;;;;;;;;;;;;;;;21.80;73.17;101881.19;7290373;19;152438;-51
2021/09/05 09:10:24;;;;;;;;;;;;;;;21.78;73.10;101889.06;7288181;19;152931;-51
2021/09/05 09:12:50;;;;;;;;;;;;;;;21.81;73.74;101892.13;7284790;19;153985;-51
2021/09/05 09:15:24;;;;;;;;;;;;;;;21.79;73.19;101888.78;7284565;19;152035;-51
2021/09/05 09:17:54;;;;;;;;;;;;;;;21.78;73.82;101894.69;7284095;19;153138;-51
2021/09/05 09:20:31;;;;;;;;;;;;;;;21.74;73.65;101900.91;7283779;19;154672;-51
2021/09/05 09:23:05;;;;;;;;;;;;;;;21.76;73.40;101902.59;7283545;19;151896;-51
2021/09/05 09:25:32;;;;;;;;;;;;;;;21.77;73.73;101898.63;7285245;19;153319;-50
2021/09/05 09:27:59;;;;;;;;;;;;;;;21.77;73.20;101898.63;7281365;19;153918;-52
2021/09/05 09:30:35;;;;;;;;;;;;;;;21.77;73.44;101904.25;7291915;19;152430;-52
2021/09/05 09:33:02;;;;;;;;;;;;;;;21.76;73.47;101908.22;7283768;19;152855;-51
2021/09/05 09:35:46;;;;;;;;;;;;;;;21.76;73.51;101892.16;7286008;19;154040;-51
2021/09/05 09:38:13;;;;;;;;;;;;;;;21.76;73.50;101906.22;7282780;19;153063;-52
2021/09/05 09:40:41;;;;;;;;;;;;;;;21.76;73.47;101892.16;7282386;19;153754;-51
2021/09/05 09:43:17;;;;;;;;;;;;;;;21.76;73.58;101891.34;7285269;19;151918;-51
2021/09/05 09:45:44;;;;;;;;;;;;;;;21.78;73.13;101895.53;7283269;19;152737;-51
2021/09/05 09:48:11;;;;;;;;;;;;;;;21.76;73.80;101888.53;7285083;19;154908;-51
2021/09/05 09:50:42;;;;;;;;;;;;;;;21.79;73.25;101890.75;7283194;19;151665;-51
2021/09/05 09:53:09;;;;;;;;;;;;;;;21.80;73.20;101893.28;7291640;19;153154;-51
2021/09/05 09:55:36;;;;;;;;;;;;;;;21.81;72.97;101888.47;7283650;19;151937;-51
2021/09/05 09:58:03;;;;;;;;;;;;;;;21.85;73.18;101892.38;7283748;19;153134;-51
2021/09/05 10:00:30;;;;;;;;;;;;;;;21.87;72.31;101890.09;7279861;19;153467;-52
2021/09/05 10:02:59;;;;;;;;;;;;;;;21.84;71.41;101888.72;7285574;19;154126;-52
2021/09/05 10:05:27;;;;;;;;;;;;;;;21.84;71.98;101888.72;7284724;19;152917;-51
2021/09/05 10:07:56;;;;;;;;;;;;;;;21.84;71.72;101890.69;7278962;19;154140;-51
2021/09/05 10:10:23;;;;;;;;;;;;;;;21.85;71.63;101895.22;7283391;19;151666;-51
2021/09/05 10:12:53;;;;;;;;;;;;;;;21.87;70.98;101892.91;7284573;19;153377;-51
2021/09/05 10:15:20;;;;;;;;;;;;;;;21.88;71.29;101888.97;7293103;19;153209;-52
2021/09/05 10:17:47;;;;;;;;;;;;;;;21.93;71.43;101887.00;7283026;19;152362;-51
2021/09/05 10:20:16;;;;;;;;;;;;;;;22.00;71.28;101883.81;7285293;19;153683;-52
2021/09/05 10:22:43;;;;;;;;;;;;;;;22.05;71.18;101878.16;7281912;19;151813;-51
2021/09/05 10:25:10;;;;;;;;;;;;;;;22.11;71.00;101882.59;7281202;19;153036;-51
2021/09/05 10:27:38;;;;;;;;;;;;;;;22.15;71.46;101878.06;7282364;19;153509;-52
2021/09/05 10:30:05;;;;;;;;;;;;;;;22.18;71.39;101871.81;7281417;19;151833;-51
2021/09/05 10:32:42;;;;;;;;;;;;;;;22.20;71.95;101878.00;7284694;19;153481;-51
2021/09/05 10:35:18;;;;;;;;;;;;;;;22.27;71.84;101872.84;7289263;19;153256;-52
2021/09/05 10:37:44;;;;;;;;;;;;;;;22.33;71.96;101868.84;7284780;19;152813;-52
2021/09/05 10:40:12;;;;;;;;;;;;;;;22.38;71.21;101863.16;7282358;19;155202;-51
2021/09/05 10:42:48;;;;;;;;;;;;;;;22.42;70.97;101866.22;7280738;19;151756;-52
2021/09/05 10:45:15;;;;;;;;;;;;;;;22.48;70.28;101863.06;7282831;19;153193;-51
2021/09/05 10:47:43;;;;;;;;;;;;;;;22.50;70.30;101857.94;7282276;19;153330;-52
2021/09/05 10:50:20;;;;;;;;;;;;;;;22.54;70.21;101850.56;7282460;19;151766;-52
2021/09/05 10:52:47;;;;;;;;;;;;;;;22.57;70.11;101849.16;7282283;19;152691;-52
2021/09/05 10:55:14;;;;;;;;;;;;;;;22.59;69.82;101850.50;7280237;19;153317;-52
2021/09/05 10:57:44;;;;;;;;;;;;;;;22.62;69.71;101855.53;7289423;19;152218;-52
2021/09/05 11:00:11;;;;;;;;;;;;;;;22.67;69.18;101851.81;7280188;19;152609;-49
2021/09/05 11:02:48;;;;;;;;;;;;;;;22.70;68.95;101848.44;7282729;19;151907;-50
2021/09/05 11:05:16;;;;;;;;;;;;;;;22.74;69.15;101845.88;7278331;19;153700;-50
2021/09/05 11:07:43;;;;;;;;;;;;;;;22.77;68.65;101840.47;7279145;19;153234;-50
2021/09/05 11:10:10;;;;;;;;;;;;;;;22.80;68.68;101845.50;7281894;19;151807;-49
2021/09/05 11:12:38;;;;;;;;;;;;;;;22.84;68.73;101846.56;7283700;19;152126;-50
2021/09/05 11:15:13;;;;;;;;;;;;;;;22.86;68.19;101834.97;7280754;19;154333;-51
2021/09/05 11:17:40;;;;;;;;;;;;;;;22.89;68.34;101843.69;7269966;19;151848;-51
2021/09/05 11:20:11;;;;;;;;;;;;;;;22.92;67.98;101839.41;7281166;19;152470;-51
2021/09/05 11:22:40;;;;;;;;;;;;;;;22.92;68.01;101833.78;7282525;19;151890;-50
2021/09/05 11:25:09;;;;;;;;;;;;;;;22.94;67.64;101832.31;7277605;19;152815;-50
2021/09/05 11:27:36;;;;;;;;;;;;;;;22.98;67.30;101827.78;7279761;19;153571;-51
2021/09/05 11:30:05;;;;;;;;;;;;;;;23.01;67.18;101829.97;7282300;19;152152;-52
2021/09/05 11:32:32;;;;;;;;;;;;;;;23.00;67.35;101833.94;7280524;19;152780;-51
2021/09/05 11:34:58;;;;;;;;;;;;;;;23.02;67.26;101828.00;7279279;19;152696;-51
2021/09/05 11:37:27;;;;;;;;;;;;;;;23.06;66.88;101826.25;7277495;19;151896;-50
2021/09/05 11:39:54;;;;;;;;;;;;;;;23.07;66.69;101830.75;7271162;19;153962;-51
2021/09/05 11:42:20;;;;;;;;;;;;;;;23.08;66.70;101835.22;7285995;19;153950;-50
2021/09/05 11:44:47;;;;;;;;;;;;;;;23.07;67.07;101836.41;7280877;19;152394;-50
2021/09/05 11:47:17;;;;;;;;;;;;;;;23.10;66.78;101834.94;7278079;19;153972;-51
2021/09/05 11:49:48;;;;;;;;;;;;;;;23.10;66.66;101838.59;7278802;19;151752;-50
2021/09/05 11:52:24;;;;;;;;;;;;;;;23.11;66.77;101831.81;7278296;19;153454;-51
2021/09/05 11:54:59;;;;;;;;;;;;;;;23.10;66.41;101837.75;7281585;19;154096;-50
2021/09/05 11:57:26;;;;;;;;;;;;;;;23.15;66.41;101830.06;7285193;19;153252;-51
2021/09/05 11:59:53;;;;;;;;;;;;;;;23.16;66.28;101828.09;7285215;19;153070;-51
2021/09/05 12:02:28;;;;;;;;;;;;;;;23.18;66.54;101828.59;7282248;19;153408;-51
2021/09/05 12:04:55;;;;;;;;;;;;;;;23.21;66.01;101828.84;7294789;19;152158;-50
2021/09/05 12:07:23;;;;;;;;;;;;;;;23.22;66.21;101836.16;7282927;19;152277;-51
2021/09/05 12:09:59;;;;;;;;;;;;;;;23.20;66.28;101830.00;7285117;19;152026;-50
2021/09/05 12:12:25;;;;;;;;;;;;;;;23.22;65.96;101824.88;7286295;19;153136;-51
2021/09/05 12:14:52;;;;;;;;;;;;;;;23.22;65.92;101822.03;7282279;19;152532;-50
2021/09/05 12:17:19;;;;;;;;;;;;;;;23.21;66.39;101823.22;7288155;19;151677;-50
2021/09/05 12:19:56;;;;;;;;;;;;;;;23.22;66.12;101830.50;7284180;19;154621;-50
2021/09/05 12:22:23;;;;;;;;;;;;;;;23.22;65.72;101832.47;7286299;19;153248;-50
2021/09/05 12:24:57;;;;;;;;;;;;;;;23.24;66.21;101825.41;7285442;19;152050;-50
2021/09/05 12:27:24;;;;;;;;;;;;;;;23.25;65.96;101832.72;7290347;19;153096;-51
2021/09/05 12:29:53;;;;;;;;;;;;;;;23.28;65.74;101825.63;7284489;19;152317;-51